createdAt,value
2022-08-20T00:01:29.456Z,3.50
2022-08-20T00:03:34.691Z,3.20
2022-08-20T00:05:40.049Z,2.80
2022-08-20T00:07:41.595Z,3.17
2022-08-20T00:09:43.883Z,3.05
2022-08-20T00:11:45.395Z,2.95
2022-08-20T00:13:49.854Z,3.03
2022-08-20T00:15:52.665Z,2.53
2022-08-20T00:17:55.096Z,2.58
2022-08-20T00:19:56.780Z,2.63
2022-08-20T00:21:58.654Z,2.70
2022-08-20T00:24:00.223Z,3.70
2022-08-20T00:26:01.777Z,3.40
2022-08-20T00:28:03.981Z,3.63
2022-08-20T00:30:10.197Z,3.80
2022-08-20T00:32:11.738Z,4.38
2022-08-20T00:34:13.245Z,4.78
2022-08-20T00:36:17.530Z,4.63
2022-08-20T00:38:19.467Z,4.25
2022-08-20T00:40:25.100Z,4.88
2022-08-20T00:42:26.670Z,4.45
2022-08-20T00:44:28.959Z,4.07
2022-08-20T00:46:31.968Z,4.28
2022-08-20T00:48:38.418Z,4.43
2022-08-20T00:50:39.963Z,4.68
2022-08-20T00:52:49.799Z,4.20
2022-08-20T00:55:00.691Z,5.07
2022-08-20T00:57:09.741Z,4.43
2022-08-20T00:59:15.004Z,4.45
2022-08-20T01:01:16.977Z,4.50
2022-08-20T01:03:20.446Z,4.53
2022-08-20T01:05:23.615Z,4.78
2022-08-20T01:07:34.846Z,4.03
2022-08-20T01:09:57.553Z,4.05
2022-08-20T01:12:00.686Z,4.18
2022-08-20T01:14:24.023Z,3.83
2022-08-20T01:16:31.379Z,3.80
2022-08-20T01:18:32.966Z,4.20
2022-08-20T01:20:39.677Z,4.22
2022-08-20T01:23:11.890Z,3.88
2022-08-20T01:25:23.840Z,4.13
2022-08-20T01:27:25.653Z,3.58
2022-08-20T01:29:31.779Z,3.55
2022-08-20T01:31:36.531Z,3.88
2022-08-20T01:33:38.089Z,3.80
2022-08-20T01:35:41.860Z,3.63
2022-08-20T01:37:43.340Z,3.95
2022-08-20T01:39:44.918Z,3.40
2022-08-20T01:41:49.152Z,3.40
2022-08-20T01:43:56.940Z,3.60
2022-08-20T01:46:00.175Z,3.03
2022-08-20T01:48:01.732Z,3.72
2022-08-20T01:50:16.364Z,3.85
2022-08-20T01:52:41.389Z,3.60
2022-08-20T01:54:43.209Z,3.38
2022-08-20T01:57:15.689Z,3.80
2022-08-20T01:59:17.354Z,3.35
2022-08-20T02:01:46.439Z,4.00
2022-08-20T02:03:49.016Z,3.40
2022-08-20T02:05:50.589Z,3.92
2022-08-20T02:07:52.140Z,3.90
2022-08-20T02:09:53.663Z,4.10
2022-08-20T02:11:57.578Z,4.05
2022-08-20T02:13:59.204Z,4.00
2022-08-20T02:16:00.946Z,3.40
2022-08-20T02:18:08.371Z,4.18
2022-08-20T02:20:15.685Z,3.95
2022-08-20T02:22:22.163Z,4.05
2022-08-20T02:24:23.778Z,4.22
2022-08-20T02:26:26.842Z,4.40
2022-08-20T02:28:28.333Z,3.83
2022-08-20T02:30:34.862Z,3.80
2022-08-20T02:32:40.258Z,3.95
2022-08-20T02:34:42.016Z,3.65
2022-08-20T02:36:46.148Z,3.95
2022-08-20T02:38:47.736Z,3.65
2022-08-20T02:40:50.024Z,4.18
2022-08-20T02:42:51.925Z,3.40
2022-08-20T02:44:54.511Z,3.85
2022-08-20T02:46:56.060Z,3.42
2022-08-20T02:48:58.261Z,3.50
2022-08-20T02:51:02.777Z,3.10
2022-08-20T02:53:04.284Z,3.30
2022-08-20T02:55:06.166Z,3.08
2022-08-20T02:57:13.432Z,3.45
2022-08-20T02:59:19.721Z,2.97
2022-08-20T03:01:21.706Z,3.17
2022-08-20T03:03:24.160Z,3.45
2022-08-20T03:05:25.883Z,3.50
2022-08-20T03:07:27.449Z,3.40
2022-08-20T03:09:28.938Z,3.25
2022-08-20T03:11:31.567Z,3.50
2022-08-20T03:13:33.821Z,3.58
2022-08-20T03:15:35.317Z,3.72
2022-08-20T03:17:37.472Z,3.88
2022-08-20T03:19:39.105Z,3.65
2022-08-20T03:21:40.780Z,4.25
2022-08-20T03:23:43.153Z,2.97
2022-08-20T03:25:45.277Z,3.10
2022-08-20T03:27:47.317Z,2.95
2022-08-20T03:29:55.682Z,2.97
2022-08-20T03:31:57.811Z,3.05
2022-08-20T03:33:59.460Z,2.80
2022-08-20T03:36:01.029Z,2.72
2022-08-20T03:38:08.060Z,2.97
2022-08-20T03:40:16.347Z,2.90
2022-08-20T03:42:17.876Z,2.97
2022-08-20T03:44:19.389Z,2.70
2022-08-20T03:46:23.052Z,2.63
2022-08-20T03:48:25.718Z,2.83
2022-08-20T03:50:30.065Z,3.28
2022-08-20T03:52:31.653Z,2.88
2022-08-20T03:54:33.238Z,3.10
2022-08-20T03:56:34.715Z,2.85
2022-08-20T03:58:36.518Z,2.92
2022-08-20T04:00:45.961Z,2.70
2022-08-20T04:02:47.621Z,3.20
2022-08-20T04:04:49.144Z,3.13
2022-08-20T04:06:50.723Z,2.95
2022-08-20T04:08:54.080Z,2.75
2022-08-20T04:10:59.767Z,2.80
2022-08-20T04:13:01.690Z,2.80
2022-08-20T04:15:03.559Z,2.40
2022-08-20T04:17:10.618Z,2.83
2022-08-20T04:19:12.120Z,2.38
2022-08-20T04:21:13.796Z,2.90
2022-08-20T04:23:15.656Z,2.30
2022-08-20T04:25:17.173Z,2.47
2022-08-20T04:27:19.361Z,3.08
2022-08-20T04:29:22.654Z,2.83
2022-08-20T04:31:33.335Z,3.30
2022-08-20T04:33:35.413Z,3.50
2022-08-20T04:35:37.502Z,3.65
2022-08-20T04:37:39.589Z,3.20
2022-08-20T04:39:41.172Z,4.30
2022-08-20T04:41:42.901Z,3.40
2022-08-20T04:43:44.419Z,4.07
2022-08-20T04:45:46.647Z,4.03
2022-08-20T04:47:49.625Z,4.13
2022-08-20T04:49:51.209Z,4.22
2022-08-20T04:51:59.420Z,4.60
2022-08-20T04:54:02.585Z,4.20
2022-08-20T04:56:04.437Z,4.57
2022-08-20T04:58:09.635Z,4.53
2022-08-20T05:00:16.161Z,4.80
2022-08-20T05:02:19.095Z,4.68
2022-08-20T05:04:20.668Z,4.80
2022-08-20T05:06:25.771Z,5.00
2022-08-20T05:08:27.956Z,5.03
2022-08-20T05:10:30.062Z,5.05
2022-08-20T05:12:31.562Z,5.35
2022-08-20T05:14:33.126Z,5.05
2022-08-20T05:16:38.132Z,5.55
2022-08-20T05:18:39.758Z,5.32
2022-08-20T05:20:42.324Z,5.63
2022-08-20T05:22:44.401Z,5.78
2022-08-20T05:24:45.928Z,5.03
2022-08-20T05:26:47.597Z,6.35
2022-08-20T05:28:54.146Z,5.05
2022-08-20T05:31:02.344Z,5.43
2022-08-20T05:33:06.033Z,5.60
2022-08-20T05:35:10.300Z,5.30
2022-08-20T05:37:11.818Z,5.72
2022-08-20T05:39:14.463Z,5.32
2022-08-20T05:41:28.435Z,5.60
2022-08-20T05:43:33.472Z,6.53
2022-08-20T05:45:39.301Z,6.35
2022-08-20T05:47:42.722Z,6.55
2022-08-20T05:49:46.393Z,6.60
2022-08-20T05:51:49.336Z,6.68
2022-08-20T05:53:50.826Z,6.57
2022-08-20T05:55:53.433Z,7.05
2022-08-20T05:58:00.121Z,7.28
2022-08-20T06:00:05.019Z,7.43
2022-08-20T06:02:26.850Z,7.28
2022-08-20T06:04:29.709Z,7.38
2022-08-20T06:06:44.235Z,7.65
2022-08-20T06:08:48.257Z,8.25
2022-08-20T06:10:49.791Z,7.53
2022-08-20T06:12:53.180Z,7.35
2022-08-20T06:14:54.699Z,7.93
2022-08-20T06:17:02.890Z,7.85
2022-08-20T06:19:05.858Z,9.30
2022-08-20T06:21:07.385Z,8.23
2022-08-20T06:23:09.362Z,7.28
2022-08-20T06:25:11.028Z,7.93
2022-08-20T06:27:15.900Z,7.97
2022-08-20T06:29:17.417Z,8.05
2022-08-20T06:31:18.950Z,7.38
2022-08-20T06:33:20.524Z,7.63
2022-08-20T06:35:22.131Z,6.85
2022-08-20T06:37:31.110Z,7.93
2022-08-20T06:39:33.449Z,7.72
2022-08-20T06:41:36.931Z,7.47
2022-08-20T06:43:38.706Z,7.65
2022-08-20T06:45:40.470Z,6.63
2022-08-20T06:47:45.080Z,6.28
2022-08-20T06:49:47.653Z,6.95
2022-08-20T06:51:51.935Z,6.95
2022-08-20T06:53:53.793Z,7.18
2022-08-20T06:55:57.933Z,6.80
2022-08-20T06:58:06.378Z,6.45
2022-08-20T07:00:13.612Z,6.97
2022-08-20T07:02:15.267Z,5.90
2022-08-20T07:04:17.118Z,5.75
2022-08-20T07:06:19.022Z,6.45
2022-08-20T07:08:22.080Z,5.70
2022-08-20T07:10:25.246Z,6.13
2022-08-20T07:12:26.850Z,5.45
2022-08-20T07:14:28.402Z,5.03
2022-08-20T07:16:30.069Z,5.15
2022-08-20T07:18:31.909Z,5.47
2022-08-20T07:20:36.244Z,5.13
2022-08-20T07:22:37.853Z,5.43
2022-08-20T07:24:41.524Z,5.22
2022-08-20T07:26:44.085Z,5.03
2022-08-20T07:28:46.507Z,5.05
2022-08-20T07:31:13.651Z,4.43
2022-08-20T07:33:17.640Z,4.50
2022-08-20T07:35:20.104Z,4.43
2022-08-20T07:37:23.798Z,4.30
2022-08-20T07:39:25.690Z,4.15
2022-08-20T07:41:27.593Z,3.58
2022-08-20T07:43:29.561Z,4.05
2022-08-20T07:45:31.343Z,3.85
2022-08-20T07:47:36.053Z,4.10
2022-08-20T07:49:39.320Z,3.55
2022-08-20T07:51:41.067Z,3.80
2022-08-20T07:53:42.711Z,3.50
2022-08-20T07:55:51.148Z,3.20
2022-08-20T07:58:08.400Z,3.08
2022-08-20T08:00:12.253Z,2.72
2022-08-20T08:02:13.726Z,2.45
2022-08-20T08:04:16.019Z,2.38
2022-08-20T08:06:29.518Z,2.50
2022-08-20T08:08:33.114Z,2.60
2022-08-20T08:10:36.648Z,2.10
2022-08-20T08:12:43.017Z,2.50
2022-08-20T08:14:46.477Z,1.63
2022-08-20T08:16:47.994Z,1.95
2022-08-20T08:18:56.343Z,1.88
2022-08-20T08:20:58.013Z,2.60
2022-08-20T08:22:59.766Z,2.00
2022-08-20T08:25:02.553Z,1.95
2022-08-20T08:27:04.635Z,1.50
2022-08-20T08:29:08.890Z,1.75
2022-08-20T08:31:11.967Z,2.03
2022-08-20T08:33:29.008Z,1.90
2022-08-20T08:35:34.041Z,2.20
2022-08-20T08:37:37.683Z,2.53
2022-08-20T08:39:39.244Z,2.20
2022-08-20T08:41:49.475Z,3.10
2022-08-20T08:43:53.532Z,2.50
2022-08-20T08:46:01.546Z,2.67
2022-08-20T08:48:04.008Z,2.30
2022-08-20T08:50:09.763Z,1.90
2022-08-20T08:52:14.679Z,1.70
2022-08-20T08:54:22.236Z,2.10
2022-08-20T08:56:27.235Z,1.63
2022-08-20T08:58:29.057Z,1.92
2022-08-20T09:00:30.640Z,1.73
2022-08-20T09:02:33.657Z,1.88
2022-08-20T09:04:39.688Z,1.65
2022-08-20T09:06:43.454Z,1.40
2022-08-20T09:08:55.303Z,1.42
2022-08-20T09:11:05.276Z,2.03
2022-08-20T09:13:07.320Z,1.10
2022-08-20T09:15:09.208Z,1.40
2022-08-20T09:17:10.723Z,1.92
2022-08-20T09:19:12.505Z,1.42
2022-08-20T09:21:14.550Z,1.48
2022-08-20T09:23:16.351Z,1.20
2022-08-20T09:25:18.782Z,1.38
2022-08-20T09:27:20.357Z,1.20
2022-08-20T09:29:21.837Z,1.60
2022-08-20T09:31:24.356Z,1.15
2022-08-20T09:33:26.032Z,1.27
2022-08-20T09:35:28.616Z,1.35
2022-08-20T09:37:36.619Z,1.00
2022-08-20T09:39:39.366Z,0.88
2022-08-20T09:41:41.443Z,0.90
2022-08-20T09:43:43.011Z,0.90
2022-08-20T09:45:44.521Z,0.73
2022-08-20T09:47:56.608Z,0.75
2022-08-20T09:49:58.800Z,0.93
2022-08-20T09:52:01.472Z,0.95
2022-08-20T09:54:03.112Z,0.90
2022-08-20T09:56:04.799Z,0.70
2022-08-20T09:58:15.759Z,0.93
2022-08-20T10:00:18.122Z,0.77
2022-08-20T10:02:19.719Z,0.93
2022-08-20T10:04:21.369Z,1.08
2022-08-20T10:06:23.046Z,1.20
2022-08-20T10:08:24.547Z,0.73
2022-08-20T10:10:26.451Z,0.73
2022-08-20T10:12:28.243Z,0.82
2022-08-20T10:14:29.825Z,0.68
2022-08-20T10:16:31.903Z,0.80
2022-08-20T10:18:34.952Z,0.68
2022-08-20T10:20:36.792Z,0.70
2022-08-20T10:22:38.462Z,1.05
2022-08-20T10:24:40.014Z,0.75
2022-08-20T10:26:41.594Z,0.77
2022-08-20T10:28:44.065Z,0.55
2022-08-20T10:30:45.565Z,1.05
2022-08-20T10:32:47.575Z,0.80
2022-08-20T10:34:49.145Z,0.75
2022-08-20T10:36:50.721Z,0.80
2022-08-20T10:38:52.415Z,0.50
2022-08-20T10:40:53.956Z,0.60
2022-08-20T10:42:55.520Z,0.77
2022-08-20T10:44:57.006Z,1.02
2022-08-20T10:46:58.920Z,0.80
2022-08-20T10:49:00.448Z,0.70
2022-08-20T10:51:01.955Z,0.47
2022-08-20T10:53:03.625Z,0.70
2022-08-20T10:55:05.646Z,0.47
2022-08-20T10:57:07.901Z,0.43
2022-08-20T10:59:09.395Z,0.52
2022-08-20T11:01:11.026Z,0.63
2022-08-20T11:03:12.893Z,1.42
2022-08-20T11:05:14.490Z,0.47
2022-08-20T11:07:55.227Z,0.90
2022-08-20T11:09:47.975Z,0.65
2022-08-20T11:11:49.451Z,0.52
2022-08-20T11:13:50.967Z,0.45
2022-08-20T11:15:52.832Z,0.50
2022-08-20T11:17:55.325Z,0.40
2022-08-20T11:19:58.829Z,0.52
2022-08-20T11:22:00.373Z,0.35
2022-08-20T11:24:03.087Z,0.55
2022-08-20T11:26:05.038Z,1.15
2022-08-20T11:28:07.204Z,0.90
2022-08-20T11:30:12.474Z,0.55
2022-08-20T11:32:14.044Z,0.80
2022-08-20T11:34:15.568Z,0.80
2022-08-20T11:36:17.058Z,0.60
2022-08-20T11:38:19.391Z,0.73
2022-08-20T11:40:21.649Z,0.60
2022-08-20T11:42:23.192Z,0.65
2022-08-20T11:44:24.781Z,0.88
2022-08-20T11:46:28.597Z,0.73
2022-08-20T11:48:30.315Z,0.50
2022-08-20T11:50:31.969Z,0.60
2022-08-20T11:52:34.137Z,0.93
2022-08-20T11:54:40.376Z,0.45
2022-08-20T11:56:42.278Z,0.55
2022-08-20T11:58:47.812Z,0.80
2022-08-20T12:00:49.509Z,0.73
2022-08-20T12:02:52.275Z,0.40
2022-08-20T12:04:55.105Z,0.80
2022-08-20T12:06:56.572Z,0.73
2022-08-20T12:09:02.426Z,0.60
2022-08-20T12:11:04.486Z,0.60
2022-08-20T12:13:07.121Z,0.70
2022-08-20T12:15:10.638Z,0.70
2022-08-20T12:17:19.620Z,0.88
2022-08-20T12:19:21.161Z,0.43
2022-08-20T12:21:22.760Z,0.60
2022-08-20T12:23:24.266Z,0.57
2022-08-20T12:25:26.372Z,0.63
2022-08-20T12:27:30.826Z,0.60
2022-08-20T12:29:33.564Z,0.50
2022-08-20T12:31:35.029Z,0.60
2022-08-20T12:33:36.572Z,0.45
2022-08-20T12:35:38.143Z,0.63
2022-08-20T12:37:40.698Z,0.60
2022-08-20T12:39:47.099Z,0.50
2022-08-20T12:41:48.679Z,0.65
2022-08-20T12:43:50.191Z,0.60
2022-08-20T12:45:52.104Z,0.55
2022-08-20T12:48:00.945Z,0.57
2022-08-20T12:50:07.919Z,0.57
2022-08-20T12:52:09.647Z,0.40
2022-08-20T12:54:11.175Z,0.90
2022-08-20T12:56:12.706Z,0.38
2022-08-20T12:58:14.372Z,0.70
2022-08-20T13:00:24.240Z,0.50
2022-08-20T13:02:26.609Z,0.75
2022-08-20T13:04:28.114Z,0.50
2022-08-20T13:06:29.597Z,0.57
2022-08-20T13:08:31.352Z,0.30
2022-08-20T13:10:35.084Z,0.50
2022-08-20T13:12:36.606Z,0.63
2022-08-20T13:14:38.684Z,0.63
2022-08-20T13:16:40.276Z,1.08
2022-08-20T13:18:41.758Z,0.45
2022-08-20T13:20:43.456Z,0.52
2022-08-20T13:22:45.583Z,0.43
2022-08-20T13:24:47.123Z,0.50
2022-08-20T13:26:49.580Z,0.40
2022-08-20T13:28:51.121Z,0.50
2022-08-20T13:30:52.624Z,0.40
2022-08-20T13:32:54.660Z,0.70
2022-08-20T13:34:56.282Z,0.50
2022-08-20T13:36:57.840Z,0.50
2022-08-20T13:38:59.305Z,0.98
2022-08-20T13:41:00.884Z,0.60
2022-08-20T13:43:06.735Z,0.40
2022-08-20T13:45:09.271Z,0.50
2022-08-20T13:47:25.734Z,0.65
2022-08-20T13:49:27.371Z,0.38
2022-08-20T13:51:35.300Z,0.50
2022-08-20T13:53:37.811Z,0.63
2022-08-20T13:55:39.387Z,0.57
2022-08-20T13:57:41.445Z,0.77
2022-08-20T13:59:45.741Z,0.70
2022-08-20T14:01:47.305Z,0.70
2022-08-20T14:03:48.872Z,0.68
2022-08-20T14:05:50.376Z,1.15
2022-08-20T14:07:52.198Z,0.55
2022-08-20T14:10:15.881Z,0.57
2022-08-20T14:12:17.727Z,0.50
2022-08-20T14:14:19.281Z,0.50
2022-08-20T14:16:27.637Z,0.50
2022-08-20T14:18:30.821Z,0.52
2022-08-20T14:20:33.876Z,0.60
2022-08-20T14:22:36.821Z,0.52
2022-08-20T14:24:38.540Z,0.90
2022-08-20T14:26:40.133Z,0.70
2022-08-20T14:28:41.871Z,0.47
2022-08-20T14:30:43.636Z,0.38
2022-08-20T14:32:45.310Z,0.80
2022-08-20T14:34:46.886Z,0.90
2022-08-20T14:36:48.399Z,0.40
2022-08-20T14:38:52.189Z,0.50
2022-08-20T14:40:53.764Z,0.60
2022-08-20T14:42:56.054Z,0.55
2022-08-20T14:45:06.267Z,0.80
2022-08-20T14:47:32.225Z,0.88
2022-08-20T14:49:33.718Z,0.88
2022-08-20T14:51:35.456Z,4.68
2022-08-20T14:53:40.454Z,1.88
2022-08-20T14:55:42.359Z,1.92
2022-08-20T14:57:44.609Z,1.90
2022-08-20T14:59:47.051Z,2.63
2022-08-20T15:01:48.535Z,1.35
2022-08-20T15:03:50.052Z,0.88
2022-08-20T15:05:52.672Z,0.75
2022-08-20T15:07:56.796Z,0.57
2022-08-20T15:10:00.433Z,0.88
2022-08-20T15:12:02.316Z,0.40
2022-08-20T15:14:03.828Z,0.30
2022-08-20T15:16:05.457Z,0.52
2022-08-20T15:18:07.203Z,0.47
2022-08-20T15:20:20.258Z,0.50
2022-08-20T15:22:23.334Z,1.13
2022-08-20T15:24:24.827Z,0.47
2022-08-20T15:26:26.357Z,0.55
2022-08-20T15:28:28.031Z,0.40
2022-08-20T15:30:31.091Z,0.30
2022-08-20T15:32:32.733Z,0.30
2022-08-20T15:34:38.929Z,1.00
2022-08-20T15:36:41.521Z,0.40
2022-08-20T15:38:43.157Z,0.75
2022-08-20T15:40:44.655Z,0.55
2022-08-20T15:42:46.791Z,0.47
2022-08-20T15:44:48.660Z,0.63
2022-08-20T15:46:50.171Z,0.38
2022-08-20T15:48:51.940Z,0.32
2022-08-20T15:50:53.421Z,0.55
2022-08-20T15:52:56.402Z,0.60
2022-08-20T15:54:58.353Z,0.40
2022-08-20T15:57:12.025Z,0.73
2022-08-20T15:59:29.136Z,0.50
2022-08-20T16:01:57.909Z,0.73
2022-08-20T16:04:22.265Z,0.50
2022-08-20T16:06:28.204Z,0.35
2022-08-20T16:08:53.942Z,0.50
2022-08-20T16:11:01.476Z,0.60
2022-08-20T16:13:09.574Z,0.40
2022-08-20T16:15:24.451Z,0.30
2022-08-20T16:17:40.256Z,0.35
2022-08-20T16:20:09.062Z,0.43
2022-08-20T16:22:16.106Z,0.35
2022-08-20T16:24:19.805Z,0.50
2022-08-20T16:26:43.907Z,1.15
2022-08-20T16:29:17.511Z,0.55
2022-08-20T16:31:22.522Z,0.28
2022-08-20T16:33:47.510Z,0.50
2022-08-20T16:35:54.741Z,0.50
2022-08-20T16:38:05.853Z,0.50
2022-08-20T16:40:19.407Z,0.85
2022-08-20T16:42:25.552Z,0.40
2022-08-20T16:44:33.037Z,0.45
2022-08-20T16:46:42.242Z,0.40
2022-08-20T16:48:58.221Z,0.57
2022-08-20T16:51:08.755Z,0.60
2022-08-20T16:53:18.113Z,0.38
2022-08-20T16:55:23.083Z,0.40
2022-08-20T16:57:27.744Z,0.70
2022-08-20T16:59:29.709Z,0.70
2022-08-20T17:01:31.389Z,0.47
2022-08-20T17:03:39.469Z,0.40
2022-08-20T17:05:47.197Z,0.50
2022-08-20T17:07:52.832Z,0.32
2022-08-20T17:10:09.287Z,0.60
2022-08-20T17:12:23.924Z,0.68
2022-08-20T17:14:25.482Z,0.73
2022-08-20T17:16:37.293Z,0.73
2022-08-20T17:18:41.477Z,0.60
2022-08-20T17:20:45.284Z,1.23
2022-08-20T17:22:53.774Z,0.55
2022-08-20T17:24:57.060Z,0.90
2022-08-20T17:27:02.904Z,0.52
2022-08-20T17:29:20.226Z,0.47
2022-08-20T17:31:43.222Z,0.57
2022-08-20T17:33:45.127Z,2.78
2022-08-20T17:36:04.279Z,4.97
2022-08-20T17:38:06.129Z,1.33
2022-08-20T17:40:11.165Z,0.85
2022-08-20T17:42:19.773Z,1.20
2022-08-20T17:44:34.705Z,0.98
2022-08-20T17:46:43.875Z,0.65
2022-08-20T17:48:48.531Z,0.50
2022-08-20T17:50:52.335Z,1.40
2022-08-20T17:52:58.814Z,0.40
2022-08-20T17:55:02.724Z,0.52
2022-08-20T17:57:14.133Z,0.55
2022-08-20T18:00:00.369Z,0.45
2022-08-20T18:01:46.683Z,0.80
2022-08-20T18:03:53.273Z,0.60
2022-08-20T18:06:02.193Z,0.55
2022-08-20T18:08:16.480Z,0.70
2022-08-20T18:10:23.524Z,0.60
2022-08-20T18:12:36.865Z,0.45
2022-08-20T18:14:57.048Z,0.65
2022-08-20T18:17:29.563Z,0.30
2022-08-20T18:19:52.182Z,0.40
2022-08-20T18:22:05.635Z,0.50
2022-08-20T18:24:18.525Z,0.70
2022-08-20T18:26:46.319Z,1.15
2022-08-20T18:28:56.573Z,0.73
2022-08-20T18:31:01.865Z,0.50
2022-08-20T18:33:08.369Z,0.45
2022-08-20T18:35:22.286Z,0.68
2022-08-20T18:37:27.571Z,0.82
2022-08-20T18:39:34.937Z,0.70
2022-08-20T18:41:55.006Z,0.98
2022-08-20T18:44:04.266Z,0.68
2022-08-20T18:46:18.656Z,0.45
2022-08-20T18:48:23.051Z,0.80
2022-08-20T18:50:30.409Z,0.47
2022-08-20T18:52:35.329Z,0.52
2022-08-20T18:54:37.950Z,1.10
2022-08-20T18:56:42.689Z,0.55
2022-08-20T18:58:57.889Z,0.60
2022-08-20T19:01:03.438Z,0.65
2022-08-20T19:03:07.760Z,0.55
2022-08-20T19:05:12.157Z,0.60
2022-08-20T19:07:16.045Z,0.73
2022-08-20T19:09:26.316Z,0.80
2022-08-20T19:11:53.497Z,0.60
2022-08-20T19:14:22.561Z,1.33
2022-08-20T19:16:43.955Z,0.68
2022-08-20T19:18:54.289Z,0.70
2022-08-20T19:20:59.040Z,0.55
2022-08-20T19:23:06.751Z,0.43
2022-08-20T19:25:09.101Z,0.80
2022-08-20T19:27:12.578Z,1.10
2022-08-20T19:29:19.852Z,1.20
2022-08-20T19:31:25.324Z,0.65
2022-08-20T19:33:30.005Z,0.73
2022-08-20T19:35:32.459Z,0.68
2022-08-20T19:37:51.038Z,0.70
2022-08-20T19:39:54.010Z,0.60
2022-08-20T19:42:22.358Z,0.68
2022-08-20T19:44:25.601Z,0.60
2022-08-20T19:46:40.078Z,0.90
2022-08-20T19:48:48.148Z,0.70
2022-08-20T19:51:04.874Z,0.68
2022-08-20T19:53:30.361Z,0.70
2022-08-20T19:55:35.649Z,0.70
2022-08-20T19:57:37.140Z,0.80
2022-08-20T19:59:51.567Z,0.85
2022-08-20T20:02:00.044Z,0.82
2022-08-20T20:06:20.259Z,0.60
2022-08-20T20:08:24.035Z,0.85
2022-08-20T20:10:35.650Z,1.00
2022-08-20T20:12:39.531Z,0.80
2022-08-20T20:14:41.407Z,1.00
2022-08-20T20:16:45.403Z,0.93
2022-08-20T20:19:03.776Z,1.05
2022-08-20T20:21:23.921Z,0.88
2022-08-20T20:23:45.474Z,1.10
2022-08-20T20:25:56.015Z,1.65
2022-08-20T20:28:11.765Z,0.98
2022-08-20T20:30:14.025Z,1.17
2022-08-20T20:32:24.437Z,1.17
2022-08-20T20:34:36.096Z,1.08
2022-08-20T20:37:13.121Z,1.15
2022-08-20T20:41:30.883Z,0.90
2022-08-20T20:43:34.425Z,1.20
2022-08-20T20:45:56.027Z,1.00
2022-08-20T20:47:58.202Z,1.20
2022-08-20T20:50:05.523Z,1.20
2022-08-20T20:52:19.844Z,1.13
2022-08-20T20:54:26.712Z,5.57
2022-08-20T20:56:32.911Z,2.95
2022-08-20T20:58:34.655Z,1.40
2022-08-20T21:00:36.320Z,1.30
2022-08-20T21:02:38.091Z,2.00
2022-08-20T21:04:42.619Z,1.15
2022-08-20T21:06:44.517Z,1.10
2022-08-20T21:08:46.009Z,1.15
2022-08-20T21:10:48.963Z,1.15
2022-08-20T21:12:53.126Z,1.45
2022-08-20T21:14:54.981Z,0.93
2022-08-20T21:17:00.128Z,1.27
2022-08-20T21:19:05.589Z,0.98
2022-08-20T21:21:08.795Z,0.95
2022-08-20T21:23:10.376Z,0.80
2022-08-20T21:25:12.396Z,1.10
2022-08-20T21:27:14.170Z,1.13
2022-08-20T21:29:18.689Z,1.13
2022-08-20T21:31:20.277Z,1.08
2022-08-20T21:33:22.537Z,1.10
2022-08-20T21:35:24.160Z,1.08
2022-08-20T21:37:25.696Z,1.13
2022-08-20T21:39:27.208Z,1.20
2022-08-20T21:41:30.148Z,1.23
2022-08-20T21:43:32.738Z,1.38
2022-08-20T21:45:34.954Z,1.20
2022-08-20T21:47:36.606Z,1.00
2022-08-20T21:49:38.082Z,1.13
2022-08-20T21:51:39.674Z,1.05
2022-08-20T21:53:41.198Z,1.13
2022-08-20T21:55:42.697Z,1.25
2022-08-20T21:57:46.686Z,1.40
2022-08-20T21:59:49.016Z,1.70
2022-08-20T22:01:51.395Z,1.90
2022-08-20T22:03:52.965Z,1.50
2022-08-20T22:05:55.041Z,1.30
2022-08-20T22:07:56.537Z,1.70
2022-08-20T22:09:58.041Z,1.17
2022-08-20T22:12:03.749Z,1.27
2022-08-20T22:14:08.315Z,1.02
2022-08-20T22:16:12.917Z,1.33
2022-08-20T22:18:16.460Z,1.27
2022-08-20T22:20:18.102Z,1.45
2022-08-20T22:22:20.804Z,1.73
2022-08-20T22:24:23.513Z,1.27
2022-08-20T22:26:27.210Z,1.33
2022-08-20T22:28:29.009Z,1.27
2022-08-20T22:30:31.417Z,1.75
2022-08-20T22:32:46.859Z,1.48
2022-08-20T22:34:53.748Z,1.33
2022-08-20T22:36:57.273Z,0.98
2022-08-20T22:38:58.872Z,1.00
2022-08-20T22:41:00.454Z,1.17
2022-08-20T22:43:02.061Z,1.17
2022-08-20T22:45:03.810Z,1.08
2022-08-20T22:47:08.084Z,1.23
2022-08-20T22:49:13.171Z,1.20
2022-08-20T22:51:27.795Z,1.48
2022-08-20T22:53:30.305Z,1.00
2022-08-20T22:55:31.794Z,1.05
2022-08-20T22:57:34.211Z,0.90
2022-08-20T22:59:46.360Z,0.90
2022-08-20T23:01:52.818Z,1.05
2022-08-20T23:03:57.296Z,1.48
2022-08-20T23:05:58.867Z,1.38
2022-08-20T23:08:01.206Z,0.93
2022-08-20T23:10:04.308Z,1.15
2022-08-20T23:12:06.289Z,0.88
2022-08-20T23:14:07.769Z,1.23
2022-08-20T23:16:09.266Z,0.85
2022-08-20T23:18:15.793Z,0.80
2022-08-20T23:20:18.346Z,1.05
2022-08-20T23:22:20.292Z,0.93
2022-08-20T23:24:22.097Z,0.88
2022-08-20T23:26:23.675Z,1.05
2022-08-20T23:28:26.273Z,0.80
2022-08-20T23:30:28.073Z,1.30
2022-08-20T23:32:29.616Z,0.95
2022-08-20T23:34:31.149Z,1.27
2022-08-20T23:36:34.061Z,1.55
2022-08-20T23:38:36.327Z,1.27
2022-08-20T23:40:38.018Z,0.73
2022-08-20T23:42:39.719Z,1.00
2022-08-20T23:44:41.364Z,0.88
2022-08-20T23:46:43.083Z,0.90
2022-08-20T23:48:44.963Z,0.90
2022-08-20T23:50:46.547Z,1.10
2022-08-20T23:52:48.566Z,1.10
2022-08-20T23:54:50.986Z,0.93
2022-08-20T23:56:57.059Z,1.10
2022-08-20T23:58:59.129Z,1.00
